sensor_id;sensor_type;location;lat;lon;timestamp;P1;durP1;ratioP1;P2;durP2;ratioP2
7989;SDS011;4040;42.848;23.034;2023-03-01T00:07:05;4.10;;;2.33;;
7989;SDS011;4040;42.848;23.034;2023-03-01T00:12:54;4.23;;;2.60;;
7989;SDS011;4040;42.848;23.034;2023-03-01T00:18:44;4.77;;;2.50;;
7989;SDS011;4040;42.848;23.034;2023-03-01T00:24:33;2.53;;;1.90;;
7989;SDS011;4040;42.848;23.034;2023-03-01T00:30:22;4.60;;;3.03;;
7989;SDS011;4040;42.848;23.034;2023-03-01T00:36:12;3.23;;;2.40;;
7989;SDS011;4040;42.848;23.034;2023-03-01T00:42:02;3.40;;;2.13;;
7989;SDS011;4040;42.848;23.034;2023-03-01T00:47:51;2.43;;;2.00;;
7989;SDS011;4040;42.848;23.034;2023-03-01T00:53:41;2.57;;;1.70;;
7989;SDS011;4040;42.848;23.034;2023-03-01T00:59:30;2.30;;;1.80;;
7989;SDS011;4040;42.848;23.034;2023-03-01T01:05:19;3.07;;;2.10;;
7989;SDS011;4040;42.848;23.034;2023-03-01T01:11:10;3.50;;;2.47;;
7989;SDS011;4040;42.848;23.034;2023-03-01T01:16:59;3.23;;;2.03;;
7989;SDS011;4040;42.848;23.034;2023-03-01T01:22:48;5.07;;;1.90;;
7989;SDS011;4040;42.848;23.034;2023-03-01T01:28:39;2.67;;;1.80;;
7989;SDS011;4040;42.848;23.034;2023-03-01T01:34:28;3.50;;;1.90;;
7989;SDS011;4040;42.848;23.034;2023-03-01T01:40:17;2.00;;;1.80;;
7989;SDS011;4040;42.848;23.034;2023-03-01T01:46:10;3.30;;;1.80;;
7989;SDS011;4040;42.848;23.034;2023-03-01T01:52:08;2.10;;;1.90;;
7989;SDS011;4040;42.848;23.034;2023-03-01T01:58:02;2.60;;;2.00;;
7989;SDS011;4040;42.848;23.034;2023-03-01T02:03:54;2.83;;;2.00;;
7989;SDS011;4040;42.848;23.034;2023-03-01T02:09:45;2.63;;;2.00;;
7989;SDS011;4040;42.848;23.034;2023-03-01T02:15:36;3.77;;;2.30;;
7989;SDS011;4040;42.848;23.034;2023-03-01T02:21:33;3.90;;;2.43;;
7989;SDS011;4040;42.848;23.034;2023-03-01T02:27:29;2.30;;;2.07;;
7989;SDS011;4040;42.848;23.034;2023-03-01T02:33:24;2.00;;;1.70;;
7989;SDS011;4040;42.848;23.034;2023-03-01T02:39:14;2.83;;;2.10;;
7989;SDS011;4040;42.848;23.034;2023-03-01T02:45:05;1.23;;;1.13;;
7989;SDS011;4040;42.848;23.034;2023-03-01T02:51:01;1.90;;;1.40;;
7989;SDS011;4040;42.848;23.034;2023-03-01T02:56:53;1.80;;;1.60;;
7989;SDS011;4040;42.848;23.034;2023-03-01T03:02:43;3.97;;;2.40;;
7989;SDS011;4040;42.848;23.034;2023-03-01T03:12:34;4.67;;;2.20;;
7989;SDS011;4040;42.848;23.034;2023-03-01T03:18:23;2.23;;;1.63;;
7989;SDS011;4040;42.848;23.034;2023-03-01T03:24:13;2.67;;;1.57;;
7989;SDS011;4040;42.848;23.034;2023-03-01T03:30:04;3.43;;;2.17;;
7989;SDS011;4040;42.848;23.034;2023-03-01T03:35:55;3.20;;;2.07;;
7989;SDS011;4040;42.848;23.034;2023-03-01T03:41:44;3.00;;;1.67;;
7989;SDS011;4040;42.848;23.034;2023-03-01T03:47:34;3.27;;;2.40;;
7989;SDS011;4040;42.848;23.034;2023-03-01T03:53:24;6.10;;;3.83;;
7989;SDS011;4040;42.848;23.034;2023-03-01T03:59:14;14.80;;;10.87;;
7989;SDS011;4040;42.848;23.034;2023-03-01T04:05:04;2.97;;;2.20;;
7989;SDS011;4040;42.848;23.034;2023-03-01T04:15:16;1.60;;;1.50;;
7989;SDS011;4040;42.848;23.034;2023-03-01T04:21:06;5.87;;;3.70;;
7989;SDS011;4040;42.848;23.034;2023-03-01T04:26:55;2.43;;;1.73;;
7989;SDS011;4040;42.848;23.034;2023-03-01T04:32:44;3.57;;;2.73;;
7989;SDS011;4040;42.848;23.034;2023-03-01T04:38:34;3.27;;;2.37;;
7989;SDS011;4040;42.848;23.034;2023-03-01T04:44:23;9.47;;;3.13;;
7989;SDS011;4040;42.848;23.034;2023-03-01T04:50:13;5.70;;;3.23;;
7989;SDS011;4040;42.848;23.034;2023-03-01T04:56:05;4.83;;;2.40;;
7989;SDS011;4040;42.848;23.034;2023-03-01T05:01:55;2.87;;;2.10;;
7989;SDS011;4040;42.848;23.034;2023-03-01T05:07:44;3.90;;;2.43;;
7989;SDS011;4040;42.848;23.034;2023-03-01T05:17:56;5.33;;;2.50;;
7989;SDS011;4040;42.848;23.034;2023-03-01T05:23:46;3.47;;;1.77;;
7989;SDS011;4040;42.848;23.034;2023-03-01T05:29:35;5.40;;;3.60;;
7989;SDS011;4040;42.848;23.034;2023-03-01T05:35:27;2.90;;;2.20;;
7989;SDS011;4040;42.848;23.034;2023-03-01T05:41:19;6.23;;;4.40;;
7989;SDS011;4040;42.848;23.034;2023-03-01T05:47:08;9.17;;;4.27;;
7989;SDS011;4040;42.848;23.034;2023-03-01T05:52:59;10.77;;;4.60;;
7989;SDS011;4040;42.848;23.034;2023-03-01T05:58:49;12.63;;;5.00;;
7989;SDS011;4040;42.848;23.034;2023-03-01T06:04:38;4.37;;;3.33;;
7989;SDS011;4040;42.848;23.034;2023-03-01T06:10:28;8.57;;;4.50;;
7989;SDS011;4040;42.848;23.034;2023-03-01T06:20:39;5.50;;;3.73;;
7989;SDS011;4040;42.848;23.034;2023-03-01T06:26:29;9.07;;;5.30;;
7989;SDS011;4040;42.848;23.034;2023-03-01T06:32:18;5.00;;;3.40;;
7989;SDS011;4040;42.848;23.034;2023-03-01T06:38:06;5.67;;;3.50;;
7989;SDS011;4040;42.848;23.034;2023-03-01T06:43:57;4.03;;;2.50;;
7989;SDS011;4040;42.848;23.034;2023-03-01T06:49:45;3.47;;;2.50;;
7989;SDS011;4040;42.848;23.034;2023-03-01T06:55:33;3.20;;;2.07;;
7989;SDS011;4040;42.848;23.034;2023-03-01T07:01:24;6.13;;;3.30;;
7989;SDS011;4040;42.848;23.034;2023-03-01T07:07:13;6.37;;;3.30;;
7989;SDS011;4040;42.848;23.034;2023-03-01T07:13:01;3.17;;;2.03;;
7989;SDS011;4040;42.848;23.034;2023-03-01T07:23:14;4.80;;;2.50;;
7989;SDS011;4040;42.848;23.034;2023-03-01T07:29:03;16.13;;;7.30;;
7989;SDS011;4040;42.848;23.034;2023-03-01T07:34:53;9.03;;;5.33;;
7989;SDS011;4040;42.848;23.034;2023-03-01T07:40:43;5.60;;;3.60;;
7989;SDS011;4040;42.848;23.034;2023-03-01T07:46:32;8.77;;;4.47;;
7989;SDS011;4040;42.848;23.034;2023-03-01T07:52:21;3.00;;;2.63;;
7989;SDS011;4040;42.848;23.034;2023-03-01T07:58:11;6.50;;;2.57;;
7989;SDS011;4040;42.848;23.034;2023-03-01T08:04:00;3.97;;;2.70;;
7989;SDS011;4040;42.848;23.034;2023-03-01T08:09:51;5.30;;;2.93;;
7989;SDS011;4040;42.848;23.034;2023-03-01T08:15:41;4.53;;;2.87;;
7989;SDS011;4040;42.848;23.034;2023-03-01T08:25:51;4.40;;;2.47;;
7989;SDS011;4040;42.848;23.034;2023-03-01T08:31:42;9.97;;;4.60;;
7989;SDS011;4040;42.848;23.034;2023-03-01T08:37:31;5.77;;;2.87;;
7989;SDS011;4040;42.848;23.034;2023-03-01T08:43:19;4.33;;;2.80;;
7989;SDS011;4040;42.848;23.034;2023-03-01T08:49:13;14.37;;;8.60;;
7989;SDS011;4040;42.848;23.034;2023-03-01T08:55:03;3.77;;;2.60;;
7989;SDS011;4040;42.848;23.034;2023-03-01T09:00:52;2.00;;;1.67;;
7989;SDS011;4040;42.848;23.034;2023-03-01T09:06:44;4.83;;;2.90;;
7989;SDS011;4040;42.848;23.034;2023-03-01T09:12:33;2.83;;;2.00;;
7989;SDS011;4040;42.848;23.034;2023-03-01T09:18:22;1.70;;;1.50;;
7989;SDS011;4040;42.848;23.034;2023-03-01T09:28:34;18.80;;;5.80;;
7989;SDS011;4040;42.848;23.034;2023-03-01T09:34:22;8.33;;;5.03;;
7989;SDS011;4040;42.848;23.034;2023-03-01T09:40:12;5.23;;;3.10;;
7989;SDS011;4040;42.848;23.034;2023-03-01T09:46:06;3.83;;;2.67;;
7989;SDS011;4040;42.848;23.034;2023-03-01T09:52:00;4.63;;;3.03;;
7989;SDS011;4040;42.848;23.034;2023-03-01T09:57:53;6.30;;;3.73;;
7989;SDS011;4040;42.848;23.034;2023-03-01T10:03:55;6.57;;;2.47;;
7989;SDS011;4040;42.848;23.034;2023-03-01T10:09:53;3.73;;;3.03;;
7989;SDS011;4040;42.848;23.034;2023-03-01T10:15:43;4.47;;;2.50;;
7989;SDS011;4040;42.848;23.034;2023-03-01T10:21:38;10.37;;;4.87;;
7989;SDS011;4040;42.848;23.034;2023-03-01T10:31:54;5.73;;;3.23;;
7989;SDS011;4040;42.848;23.034;2023-03-01T10:37:57;4.50;;;2.87;;
7989;SDS011;4040;42.848;23.034;2023-03-01T10:43:51;3.53;;;2.90;;
7989;SDS011;4040;42.848;23.034;2023-03-01T10:49:58;3.97;;;2.93;;
7989;SDS011;4040;42.848;23.034;2023-03-01T10:55:50;6.37;;;4.00;;
7989;SDS011;4040;42.848;23.034;2023-03-01T11:01:46;4.30;;;3.13;;
7989;SDS011;4040;42.848;23.034;2023-03-01T11:07:51;4.57;;;2.30;;
7989;SDS011;4040;42.848;23.034;2023-03-01T11:13:49;3.47;;;2.70;;
7989;SDS011;4040;42.848;23.034;2023-03-01T11:19:43;7.33;;;4.57;;
7989;SDS011;4040;42.848;23.034;2023-03-01T11:25:53;4.47;;;2.40;;
7989;SDS011;4040;42.848;23.034;2023-03-01T11:31:45;2.70;;;2.03;;
7989;SDS011;4040;42.848;23.034;2023-03-01T11:37:38;3.13;;;2.00;;
7989;SDS011;4040;42.848;23.034;2023-03-01T11:43:33;3.77;;;2.80;;
7989;SDS011;4040;42.848;23.034;2023-03-01T11:49:39;3.60;;;2.10;;
7989;SDS011;4040;42.848;23.034;2023-03-01T11:55:43;3.63;;;2.77;;
7989;SDS011;4040;42.848;23.034;2023-03-01T12:01:48;1.87;;;1.60;;
7989;SDS011;4040;42.848;23.034;2023-03-01T12:07:51;2.83;;;2.07;;
7989;SDS011;4040;42.848;23.034;2023-03-01T12:13:49;2.70;;;2.30;;
7989;SDS011;4040;42.848;23.034;2023-03-01T12:19:53;2.00;;;1.80;;
7989;SDS011;4040;42.848;23.034;2023-03-01T12:25:56;5.17;;;2.83;;
7989;SDS011;4040;42.848;23.034;2023-03-01T12:38:12;4.30;;;3.90;;
7989;SDS011;4040;42.848;23.034;2023-03-01T12:44:14;2.50;;;2.10;;
7989;SDS011;4040;42.848;23.034;2023-03-01T12:50:27;6.10;;;2.97;;
7989;SDS011;4040;42.848;23.034;2023-03-01T12:56:24;3.80;;;2.10;;
7989;SDS011;4040;42.848;23.034;2023-03-01T13:02:18;3.90;;;2.10;;
7989;SDS011;4040;42.848;23.034;2023-03-01T13:08:13;3.87;;;3.30;;
7989;SDS011;4040;42.848;23.034;2023-03-01T13:20:27;3.90;;;2.60;;
7989;SDS011;4040;42.848;23.034;2023-03-01T13:26:20;7.97;;;4.60;;
7989;SDS011;4040;42.848;23.034;2023-03-01T13:32:16;5.00;;;3.23;;
7989;SDS011;4040;42.848;23.034;2023-03-01T13:44:34;12.63;;;6.30;;
7989;SDS011;4040;42.848;23.034;2023-03-01T13:50:25;8.17;;;4.23;;
7989;SDS011;4040;42.848;23.034;2023-03-01T13:56:18;5.23;;;2.80;;
7989;SDS011;4040;42.848;23.034;2023-03-01T14:02:12;5.20;;;3.57;;
7989;SDS011;4040;42.848;23.034;2023-03-01T14:08:01;5.30;;;4.30;;
7989;SDS011;4040;42.848;23.034;2023-03-01T14:14:02;9.87;;;5.30;;
7989;SDS011;4040;42.848;23.034;2023-03-01T14:20:03;7.67;;;4.47;;
7989;SDS011;4040;42.848;23.034;2023-03-01T14:26:00;5.83;;;4.37;;
7989;SDS011;4040;42.848;23.034;2023-03-01T14:31:50;10.10;;;6.70;;
7989;SDS011;4040;42.848;23.034;2023-03-01T14:37:39;6.97;;;3.70;;
7989;SDS011;4040;42.848;23.034;2023-03-01T14:43:28;6.33;;;3.93;;
7989;SDS011;4040;42.848;23.034;2023-03-01T14:49:20;9.47;;;5.40;;
7989;SDS011;4040;42.848;23.034;2023-03-01T14:55:13;11.80;;;5.63;;
7989;SDS011;4040;42.848;23.034;2023-03-01T15:01:05;12.03;;;6.43;;
7989;SDS011;4040;42.848;23.034;2023-03-01T15:06:56;15.77;;;7.50;;
7989;SDS011;4040;42.848;23.034;2023-03-01T15:12:53;7.57;;;3.57;;
7989;SDS011;4040;42.848;23.034;2023-03-01T15:18:43;5.40;;;4.37;;
7989;SDS011;4040;42.848;23.034;2023-03-01T15:24:35;8.63;;;5.13;;
7989;SDS011;4040;42.848;23.034;2023-03-01T15:34:46;10.67;;;5.83;;
7989;SDS011;4040;42.848;23.034;2023-03-01T15:40:36;15.67;;;9.33;;
7989;SDS011;4040;42.848;23.034;2023-03-01T15:46:37;4.67;;;3.00;;
7989;SDS011;4040;42.848;23.034;2023-03-01T15:52:27;4.97;;;3.77;;
7989;SDS011;4040;42.848;23.034;2023-03-01T15:58:19;7.00;;;3.53;;
7989;SDS011;4040;42.848;23.034;2023-03-01T16:04:10;11.97;;;5.90;;
7989;SDS011;4040;42.848;23.034;2023-03-01T16:10:03;7.90;;;4.70;;
7989;SDS011;4040;42.848;23.034;2023-03-01T16:15:53;8.87;;;4.70;;
7989;SDS011;4040;42.848;23.034;2023-03-01T16:21:42;11.03;;;6.87;;
7989;SDS011;4040;42.848;23.034;2023-03-01T16:27:33;11.17;;;6.03;;
7989;SDS011;4040;42.848;23.034;2023-03-01T16:37:45;15.53;;;6.80;;
7989;SDS011;4040;42.848;23.034;2023-03-01T16:43:34;9.57;;;4.10;;
7989;SDS011;4040;42.848;23.034;2023-03-01T16:49:23;22.80;;;8.93;;
7989;SDS011;4040;42.848;23.034;2023-03-01T16:55:13;21.03;;;8.20;;
7989;SDS011;4040;42.848;23.034;2023-03-01T17:01:06;22.20;;;10.27;;
7989;SDS011;4040;42.848;23.034;2023-03-01T17:06:57;27.23;;;11.77;;
7989;SDS011;4040;42.848;23.034;2023-03-01T17:12:48;15.07;;;8.17;;
7989;SDS011;4040;42.848;23.034;2023-03-01T17:18:37;14.67;;;7.17;;
7989;SDS011;4040;42.848;23.034;2023-03-01T17:24:26;13.83;;;5.93;;
7989;SDS011;4040;42.848;23.034;2023-03-01T17:30:17;6.83;;;4.40;;
7989;SDS011;4040;42.848;23.034;2023-03-01T17:40:28;10.37;;;5.70;;
7989;SDS011;4040;42.848;23.034;2023-03-01T17:46:19;15.10;;;8.30;;
7989;SDS011;4040;42.848;23.034;2023-03-01T17:52:07;9.57;;;5.10;;
7989;SDS011;4040;42.848;23.034;2023-03-01T17:57:56;6.90;;;4.20;;
7989;SDS011;4040;42.848;23.034;2023-03-01T18:03:46;9.87;;;6.50;;
7989;SDS011;4040;42.848;23.034;2023-03-01T18:09:37;18.73;;;8.03;;
7989;SDS011;4040;42.848;23.034;2023-03-01T18:15:26;9.20;;;6.17;;
7989;SDS011;4040;42.848;23.034;2023-03-01T18:21:17;7.67;;;4.33;;
7989;SDS011;4040;42.848;23.034;2023-03-01T18:27:07;10.10;;;5.10;;
7989;SDS011;4040;42.848;23.034;2023-03-01T18:32:56;14.73;;;7.90;;
7989;SDS011;4040;42.848;23.034;2023-03-01T18:43:08;20.53;;;9.40;;
7989;SDS011;4040;42.848;23.034;2023-03-01T18:48:56;11.77;;;6.97;;
7989;SDS011;4040;42.848;23.034;2023-03-01T18:54:45;13.47;;;8.07;;
7989;SDS011;4040;42.848;23.034;2023-03-01T19:00:35;22.47;;;9.80;;
7989;SDS011;4040;42.848;23.034;2023-03-01T19:06:26;16.33;;;9.87;;
7989;SDS011;4040;42.848;23.034;2023-03-01T19:12:17;27.30;;;12.93;;
7989;SDS011;4040;42.848;23.034;2023-03-01T19:18:07;19.77;;;9.73;;
7989;SDS011;4040;42.848;23.034;2023-03-01T19:23:56;19.13;;;9.20;;
7989;SDS011;4040;42.848;23.034;2023-03-01T19:29:46;14.10;;;9.47;;
7989;SDS011;4040;42.848;23.034;2023-03-01T19:35:36;24.77;;;12.67;;
7989;SDS011;4040;42.848;23.034;2023-03-01T19:45:49;15.93;;;9.30;;
7989;SDS011;4040;42.848;23.034;2023-03-01T19:51:39;17.20;;;8.87;;
7989;SDS011;4040;42.848;23.034;2023-03-01T19:57:28;17.67;;;9.53;;
7989;SDS011;4040;42.848;23.034;2023-03-01T20:03:47;14.90;;;9.63;;
7989;SDS011;4040;42.848;23.034;2023-03-01T20:09:38;13.67;;;8.27;;
7989;SDS011;4040;42.848;23.034;2023-03-01T20:15:27;14.17;;;8.53;;
7989;SDS011;4040;42.848;23.034;2023-03-01T20:21:16;13.03;;;8.60;;
7989;SDS011;4040;42.848;23.034;2023-03-01T20:27:08;14.40;;;8.80;;
7989;SDS011;4040;42.848;23.034;2023-03-01T20:32:57;19.27;;;10.80;;
7989;SDS011;4040;42.848;23.034;2023-03-01T20:38:46;17.50;;;10.33;;
7989;SDS011;4040;42.848;23.034;2023-03-01T20:48:58;16.03;;;8.53;;
7989;SDS011;4040;42.848;23.034;2023-03-01T20:54:47;21.07;;;11.50;;
7989;SDS011;4040;42.848;23.034;2023-03-01T21:00:36;21.23;;;11.03;;
7989;SDS011;4040;42.848;23.034;2023-03-01T21:06:26;18.80;;;9.33;;
7989;SDS011;4040;42.848;23.034;2023-03-01T21:12:15;11.80;;;7.33;;
7989;SDS011;4040;42.848;23.034;2023-03-01T21:18:04;14.97;;;9.10;;
7989;SDS011;4040;42.848;23.034;2023-03-01T21:23:54;17.00;;;8.63;;
7989;SDS011;4040;42.848;23.034;2023-03-01T21:29:43;12.10;;;8.20;;
7989;SDS011;4040;42.848;23.034;2023-03-01T21:35:33;15.63;;;8.67;;
7989;SDS011;4040;42.848;23.034;2023-03-01T21:41:25;14.07;;;8.27;;
7989;SDS011;4040;42.848;23.034;2023-03-01T21:51:36;24.60;;;9.57;;
7989;SDS011;4040;42.848;23.034;2023-03-01T21:57:27;12.57;;;7.43;;
7989;SDS011;4040;42.848;23.034;2023-03-01T22:03:15;17.80;;;9.60;;
7989;SDS011;4040;42.848;23.034;2023-03-01T22:09:05;13.53;;;7.47;;
7989;SDS011;4040;42.848;23.034;2023-03-01T22:14:56;12.23;;;7.87;;
7989;SDS011;4040;42.848;23.034;2023-03-01T22:20:45;11.73;;;6.80;;
7989;SDS011;4040;42.848;23.034;2023-03-01T22:26:35;8.47;;;5.60;;
7989;SDS011;4040;42.848;23.034;2023-03-01T22:32:26;9.40;;;5.77;;
7989;SDS011;4040;42.848;23.034;2023-03-01T22:38:15;9.07;;;5.73;;
7989;SDS011;4040;42.848;23.034;2023-03-01T22:44:04;11.20;;;4.87;;
7989;SDS011;4040;42.848;23.034;2023-03-01T22:54:16;9.50;;;5.00;;
7989;SDS011;4040;42.848;23.034;2023-03-01T23:08:28;10.60;;;5.43;;
7989;SDS011;4040;42.848;23.034;2023-03-01T23:14:17;6.30;;;4.60;;
7989;SDS011;4040;42.848;23.034;2023-03-01T23:20:07;8.10;;;4.87;;
7989;SDS011;4040;42.848;23.034;2023-03-01T23:25:58;9.33;;;4.27;;
7989;SDS011;4040;42.848;23.034;2023-03-01T23:31:47;8.97;;;4.40;;
7989;SDS011;4040;42.848;23.034;2023-03-01T23:37:36;6.50;;;4.20;;
7989;SDS011;4040;42.848;23.034;2023-03-01T23:43:26;9.37;;;5.00;;
7989;SDS011;4040;42.848;23.034;2023-03-01T23:49:16;8.63;;;4.87;;
7989;SDS011;4040;42.848;23.034;2023-03-01T23:55:07;8.13;;;4.53;;
